Time;durP1;ratioP1;P1;durP2;ratioP2;P2;SDS_P1;SDS_P2;PMS_P1;PMS_P2;Temp;Humidity;BMP_temperature;BMP_pressure;BME280_temperature;BME280_humidity;BME280_pressure;Samples;Min_cycle;Max_cycle;Signal;HPM_P1;HPM_P2
2021/01/18 00:00:22;;;;;;;13.23;9.00;;;2.70;99.90;;;;;;5014388;28;20618;-88
2021/01/18 00:02:49;;;;;;;8.88;7.53;;;2.70;99.90;;;;;;5012705;28;20291;-89
2021/01/18 00:05:16;;;;;;;14.60;8.70;;;2.80;99.90;;;;;;5013613;28;20242;-89
2021/01/18 00:07:44;;;;;;;16.13;8.80;;;2.90;99.90;;;;;;5013948;28;20273;-90
2021/01/18 00:10:13;;;;;;;10.30;7.15;;;2.80;99.90;;;;;;5013331;28;20632;-89
2021/01/18 00:12:42;;;;;;;13.75;7.25;;;2.80;99.90;;;;;;5014462;28;20219;-88
2021/01/18 00:15:11;;;;;;;15.25;8.32;;;2.90;99.90;;;;;;5013802;28;20235;-89
2021/01/18 00:17:37;;;;;;;13.77;7.20;;;2.90;99.90;;;;;;5012460;28;20231;-89
2021/01/18 00:20:04;;;;;;;7.65;5.95;;;2.90;99.90;;;;;;5013551;28;20286;-90
2021/01/18 00:22:33;;;;;;;11.18;6.03;;;3.00;99.90;;;;;;5014292;28;20254;-89
2021/01/18 00:24:59;;;;;;;11.70;6.28;;;2.90;99.90;;;;;;5014289;28;20231;-92
2021/01/18 00:27:26;;;;;;;10.45;6.43;;;2.90;99.90;;;;;;5015379;28;20226;-91
2021/01/18 00:29:52;;;;;;;9.98;5.50;;;2.90;99.90;;;;;;5015805;28;20231;-91
2021/01/18 00:32:22;;;;;;;5.45;4.60;;;2.90;99.90;;;;;;5020317;28;20241;-93
2021/01/18 00:34:49;;;;;;;9.85;6.45;;;2.90;99.90;;;;;;5017040;28;20231;-92
2021/01/18 00:37:16;;;;;;;7.82;6.50;;;2.80;99.90;;;;;;5023391;28;20228;-92
2021/01/18 00:39:44;;;;;;;9.68;5.68;;;3.00;99.90;;;;;;5015291;28;20239;-89
2021/01/18 00:42:11;;;;;;;9.02;5.50;;;2.90;99.90;;;;;;5013881;28;20207;-92
2021/01/18 00:44:37;;;;;;;11.38;6.40;;;2.90;99.90;;;;;;5014548;28;20231;-90
2021/01/18 00:47:04;;;;;;;12.05;5.03;;;2.90;99.90;;;;;;5013071;28;20299;-89
2021/01/18 00:49:31;;;;;;;12.13;8.02;;;2.90;99.90;;;;;;5013704;28;20239;-86
2021/01/18 00:51:57;;;;;;;9.25;6.43;;;2.90;99.90;;;;;;5013138;28;20323;-87
2021/01/18 00:54:24;;;;;;;11.30;6.18;;;2.90;99.90;;;;;;5013120;28;20318;-87
2021/01/18 00:56:52;;;;;;;8.18;5.90;;;2.90;99.90;;;;;;5014216;28;20290;-88
2021/01/18 00:59:18;;;;;;;7.05;5.82;;;2.90;99.90;;;;;;5014268;28;20628;-90
2021/01/18 01:01:45;;;;;;;7.07;5.18;;;2.90;99.90;;;;;;5010241;28;20299;-88
2021/01/18 01:04:12;;;;;;;8.00;5.60;;;3.00;99.90;;;;;;5013035;28;20290;-90
2021/01/18 01:06:40;;;;;;;6.20;4.85;;;2.90;99.90;;;;;;4992325;28;20203;-88
2021/01/18 01:09:06;;;;;;;6.03;5.38;;;2.90;99.90;;;;;;5013231;28;20719;-88
2021/01/18 01:11:33;;;;;;;6.13;4.57;;;2.90;99.90;;;;;;5013370;28;20311;-88
2021/01/18 01:13:59;;;;;;;7.95;6.20;;;2.90;99.90;;;;;;5012999;28;20322;-88
2021/01/18 01:16:25;;;;;;;10.45;5.70;;;2.90;99.90;;;;;;5013738;28;20734;-88
2021/01/18 01:18:52;;;;;;;10.70;6.10;;;3.00;99.90;;;;;;5016978;28;20714;-88
2021/01/18 01:21:18;;;;;;;4.53;4.07;;;3.00;99.90;;;;;;5016612;28;20735;-86
2021/01/18 01:23:46;;;;;;;7.28;5.50;;;3.00;99.90;;;;;;5016817;28;20203;-85
2021/01/18 01:26:12;;;;;;;8.00;4.60;;;3.00;99.90;;;;;;5016786;28;20711;-84
2021/01/18 01:28:38;;;;;;;9.40;5.32;;;3.00;99.90;;;;;;5016159;28;20738;-86
2021/01/18 01:31:05;;;;;;;5.18;4.03;;;3.00;99.90;;;;;;5014739;28;20667;-85
2021/01/18 01:33:31;;;;;;;6.43;5.80;;;2.90;99.90;;;;;;5015426;28;20645;-85
2021/01/18 01:35:58;;;;;;;10.00;5.25;;;2.90;99.90;;;;;;5016304;28;20401;-86
2021/01/18 01:38:24;;;;;;;8.27;5.65;;;2.90;99.90;;;;;;5016158;28;20286;-85
2021/01/18 01:40:51;;;;;;;9.30;5.75;;;2.90;99.90;;;;;;5015802;28;20246;-85
2021/01/18 01:43:18;;;;;;;6.32;4.32;;;3.00;99.90;;;;;;5016175;28;20242;-84
2021/01/18 01:45:44;;;;;;;7.90;5.15;;;2.90;99.90;;;;;;5015682;28;20286;-84
2021/01/18 01:48:11;;;;;;;9.15;6.07;;;2.90;99.90;;;;;;5014667;28;20231;-83
2021/01/18 01:50:39;;;;;;;7.63;5.47;;;2.90;99.90;;;;;;5015874;28;20709;-84
2021/01/18 01:53:13;;;;;;;10.68;6.43;;;2.90;99.90;;;;;;5015615;28;20365;-85
2021/01/18 01:55:40;;;;;;;7.68;6.38;;;2.90;99.90;;;;;;5015839;28;20738;-85
2021/01/18 01:58:08;;;;;;;7.40;5.53;;;2.90;99.90;;;;;;5016043;28;20238;-84
2021/01/18 02:00:37;;;;;;;6.47;5.15;;;2.90;99.90;;;;;;5016146;28;20707;-85
2021/01/18 02:03:06;;;;;;;5.75;5.18;;;2.90;99.90;;;;;;5014464;28;20295;-85
2021/01/18 02:05:32;;;;;;;11.48;6.85;;;2.90;99.90;;;;;;5016006;28;20550;-84
2021/01/18 02:08:00;;;;;;;8.45;5.57;;;2.90;99.90;;;;;;5016078;28;20286;-85
2021/01/18 02:10:27;;;;;;;6.43;4.88;;;3.00;99.90;;;;;;4998422;28;20211;-85
2021/01/18 02:12:59;;;;;;;7.68;5.22;;;3.00;99.90;;;;;;5021361;28;20203;-84
2021/01/18 02:15:40;;;;;;;8.35;4.82;;;3.00;99.90;;;;;;5016549;28;20652;-86
2021/01/18 02:18:29;;;;;;;7.72;5.93;;;3.00;99.90;;;;;;5015685;28;20282;-85
2021/01/18 02:21:33;;;;;;;9.05;5.18;;;3.10;99.90;;;;;;5036268;28;20665;-83
2021/01/18 02:24:32;;;;;;;5.80;3.92;;;3.00;99.90;;;;;;5038138;28;20203;-84
2021/01/18 02:27:20;;;;;;;8.20;4.63;;;3.00;99.90;;;;;;5034251;28;20230;-85
2021/01/18 02:30:04;;;;;;;5.93;4.40;;;3.00;99.90;;;;;;5016720;28;20290;-84
2021/01/18 02:33:03;;;;;;;6.65;4.32;;;3.10;99.90;;;;;;5015117;28;20294;-85
2021/01/18 02:36:00;;;;;;;5.63;3.25;;;3.00;99.90;;;;;;5015455;28;20342;-84
2021/01/18 02:38:33;;;;;;;4.68;3.30;;;2.90;99.90;;;;;;5015358;28;20249;-84
2021/01/18 02:41:21;;;;;;;5.43;3.80;;;3.00;99.90;;;;;;5015394;28;20294;-84
2021/01/18 02:43:50;;;;;;;4.47;3.80;;;3.00;99.90;;;;;;5016156;28;20210;-82
2021/01/18 02:46:19;;;;;;;4.47;3.42;;;3.00;99.90;;;;;;5014520;28;20272;-84
2021/01/18 02:48:45;;;;;;;5.40;3.92;;;2.90;99.90;;;;;;5015711;28;20295;-84
2021/01/18 02:51:17;;;;;;;4.40;3.60;;;3.00;99.90;;;;;;5020788;28;20314;-84
2021/01/18 02:53:58;;;;;;;4.13;3.50;;;3.00;99.90;;;;;;5034344;28;20238;-83
2021/01/18 02:56:26;;;;;;;5.40;3.22;;;3.00;99.90;;;;;;5025416;28;20203;-84
2021/01/18 02:58:56;;;;;;;7.38;4.40;;;3.00;99.90;;;;;;5017641;28;20211;-83
2021/01/18 03:01:45;;;;;;;4.30;3.30;;;3.00;99.90;;;;;;5033220;28;20227;-83
2021/01/18 03:04:22;;;;;;;6.65;4.63;;;3.00;99.90;;;;;;5032815;28;20203;-83
2021/01/18 03:06:55;;;;;;;6.72;4.20;;;3.00;99.90;;;;;;5029041;28;20266;-85
2021/01/18 03:09:30;;;;;;;8.10;5.43;;;3.00;99.90;;;;;;5016146;28;20192;-84
2021/01/18 03:12:04;;;;;;;6.72;4.57;;;3.00;99.90;;;;;;5015278;28;20226;-83
2021/01/18 03:14:37;;;;;;;6.18;3.88;;;3.10;99.90;;;;;;5014432;28;20317;-82
2021/01/18 03:17:05;;;;;;;7.45;4.60;;;3.00;99.90;;;;;;4994794;28;20286;-83
2021/01/18 03:19:41;;;;;;;7.75;5.35;;;3.00;99.90;;;;;;5014282;28;20593;-82
2021/01/18 03:22:10;;;;;;;10.05;5.60;;;3.10;99.90;;;;;;5014410;28;20674;-84
2021/01/18 03:24:38;;;;;;;9.70;6.03;;;3.10;99.90;;;;;;5014854;28;20659;-84
2021/01/18 03:27:05;;;;;;;8.15;5.63;;;3.10;99.90;;;;;;5014124;28;20716;-83
2021/01/18 03:29:31;;;;;;;6.25;5.03;;;3.10;99.90;;;;;;4996041;28;20310;-84
2021/01/18 03:31:58;;;;;;;7.40;5.22;;;3.10;99.90;;;;;;5012445;28;20674;-82
2021/01/18 03:34:24;;;;;;;6.55;5.50;;;3.10;99.90;;;;;;5014728;28;20232;-83
2021/01/18 03:36:51;;;;;;;9.25;5.15;;;3.10;99.90;;;;;;5014940;28;20691;-85
2021/01/18 03:39:18;;;;;;;8.18;5.65;;;3.10;99.90;;;;;;5013855;28;20318;-84
2021/01/18 03:41:46;;;;;;;9.13;5.88;;;3.10;99.90;;;;;;5014778;28;20266;-84
2021/01/18 03:44:13;;;;;;;8.30;6.38;;;3.10;99.90;;;;;;5014606;28;20210;-84
2021/01/18 03:46:46;;;;;;;11.07;5.97;;;3.10;99.90;;;;;;5013391;28;20299;-84
2021/01/18 03:49:13;;;;;;;8.02;5.22;;;3.10;99.90;;;;;;5013705;28;20256;-87
2021/01/18 03:51:40;;;;;;;9.10;5.68;;;3.10;99.90;;;;;;5014140;28;20284;-85
2021/01/18 03:54:07;;;;;;;10.55;5.75;;;3.00;99.90;;;;;;5014307;28;20234;-87
2021/01/18 03:56:39;;;;;;;12.55;6.95;;;3.10;99.90;;;;;;5013808;28;20308;-86
2021/01/18 03:59:05;;;;;;;7.32;6.63;;;3.00;99.90;;;;;;5013988;28;20208;-89
2021/01/18 04:01:37;;;;;;;11.93;5.47;;;3.00;99.90;;;;;;5012425;28;20207;-88
2021/01/18 04:04:04;;;;;;;10.52;5.50;;;3.00;99.90;;;;;;5012291;28;20204;-85
2021/01/18 04:06:36;;;;;;;8.98;5.07;;;3.00;99.90;;;;;;5013644;28;20214;-87
2021/01/18 04:09:04;;;;;;;11.05;6.65;;;3.00;99.90;;;;;;5013451;28;20230;-84
2021/01/18 04:11:30;;;;;;;6.57;5.28;;;3.10;99.90;;;;;;5013163;28;20215;-84
2021/01/18 04:13:58;;;;;;;11.25;5.93;;;3.20;99.90;;;;;;5013273;28;20232;-84
2021/01/18 04:16:24;;;;;;;10.52;5.95;;;3.10;99.90;;;;;;5011277;28;20991;-88
2021/01/18 04:18:51;;;;;;;7.03;5.70;;;3.20;99.90;;;;;;5013866;28;20294;-87
2021/01/18 04:21:17;;;;;;;9.32;6.55;;;3.20;99.90;;;;;;5013398;28;20599;-86
2021/01/18 04:23:45;;;;;;;9.38;5.70;;;3.20;99.90;;;;;;5013197;28;20305;-86
2021/01/18 04:26:11;;;;;;;9.18;6.25;;;3.00;99.90;;;;;;5013665;28;20645;-87
2021/01/18 04:28:38;;;;;;;10.27;6.00;;;3.00;99.90;;;;;;5013579;28;20223;-86
2021/01/18 04:31:05;;;;;;;11.55;6.53;;;3.10;99.90;;;;;;5012321;28;20294;-89
2021/01/18 04:33:32;;;;;;;7.25;5.22;;;3.00;99.90;;;;;;5012163;28;20325;-90
2021/01/18 04:35:58;;;;;;;9.57;6.18;;;2.90;99.90;;;;;;5014078;28;20306;-89
2021/01/18 04:38:25;;;;;;;10.95;6.45;;;2.90;99.90;;;;;;5014341;28;20334;-90
2021/01/18 04:40:51;;;;;;;12.52;7.80;;;2.80;99.90;;;;;;5014335;28;20286;-92
2021/01/18 04:43:18;;;;;;;9.98;6.32;;;2.80;99.90;;;;;;5013773;28;20230;-89
2021/01/18 04:45:45;;;;;;;11.80;7.35;;;2.80;99.90;;;;;;5012932;28;20290;-89
2021/01/18 04:48:13;;;;;;;12.18;6.78;;;2.70;99.90;;;;;;5012118;28;20216;-88
2021/01/18 04:50:40;;;;;;;12.52;7.10;;;2.70;99.90;;;;;;5013945;28;20213;-86
2021/01/18 04:53:14;;;;;;;22.50;9.27;;;2.60;99.90;;;;;;5017121;28;20230;-87
2021/01/18 04:55:58;;;;;;;17.75;6.88;;;2.50;99.90;;;;;;5017515;28;20287;-90
2021/01/18 04:58:29;;;;;;;11.60;7.50;;;2.50;99.90;;;;;;5017933;28;20203;-87
2021/01/18 05:00:56;;;;;;;14.80;7.55;;;2.40;99.90;;;;;;5016352;28;20690;-83
2021/01/18 05:03:25;;;;;;;7.90;6.20;;;2.20;99.90;;;;;;5015384;28;20207;-82
2021/01/18 05:06:17;;;;;;;14.75;9.10;;;2.30;99.90;;;;;;5016951;28;20235;-81
2021/01/18 05:09:20;;;;;;;10.40;6.90;;;2.20;99.90;;;;;;5017668;28;20215;-81
2021/01/18 05:11:48;;;;;;;10.57;7.15;;;2.30;99.90;;;;;;5018021;28;20558;-85
2021/01/18 05:14:16;;;;;;;27.48;12.73;;;2.20;99.90;;;;;;5018141;28;20292;-84
2021/01/18 05:16:46;;;;;;;33.63;20.23;;;2.10;99.90;;;;;;5015937;28;20204;-85
2021/01/18 05:19:15;;;;;;;48.28;24.30;;;2.10;99.90;;;;;;5019344;28;20215;-86
2021/01/18 05:21:42;;;;;;;20.85;12.73;;;2.10;99.90;;;;;;5020044;28;20214;-86
2021/01/18 05:24:10;;;;;;;41.05;23.27;;;2.10;99.90;;;;;;5018900;28;20761;-86
2021/01/18 05:26:37;;;;;;;22.92;14.15;;;2.20;99.90;;;;;;5018555;28;20275;-86
2021/01/18 05:29:04;;;;;;;18.50;11.30;;;2.10;99.90;;;;;;5019504;28;20287;-87
2021/01/18 05:31:37;;;;;;;18.13;9.80;;;2.30;99.90;;;;;;5017518;28;20298;-87
2021/01/18 05:34:05;;;;;;;13.65;8.10;;;2.20;99.90;;;;;;5018160;28;20318;-88
2021/01/18 05:36:35;;;;;;;13.98;7.70;;;2.20;99.90;;;;;;5019082;28;20211;-87
2021/01/18 05:39:12;;;;;;;16.20;7.82;;;2.20;99.90;;;;;;5017518;28;20273;-87
2021/01/18 05:41:39;;;;;;;12.77;7.30;;;2.40;99.90;;;;;;5021301;28;20302;-83
2021/01/18 05:44:06;;;;;;;11.55;7.72;;;2.40;99.90;;;;;;5021150;28;20733;-86
2021/01/18 05:46:33;;;;;;;9.52;5.50;;;2.50;99.90;;;;;;5014600;28;20277;-86
2021/01/18 05:49:08;;;;;;;13.93;6.75;;;2.40;99.90;;;;;;5016330;28;20211;-83
2021/01/18 05:51:36;;;;;;;16.38;7.25;;;2.40;99.90;;;;;;5019245;28;20323;-84
2021/01/18 05:54:04;;;;;;;12.90;5.93;;;2.40;99.90;;;;;;5015711;28;20231;-83
2021/01/18 05:56:42;;;;;;;11.15;7.13;;;2.40;99.90;;;;;;5015837;28;20294;-82
2021/01/18 05:59:16;;;;;;;12.13;7.70;;;2.40;99.90;;;;;;5015806;28;20282;-83
2021/01/18 06:01:43;;;;;;;14.35;7.90;;;2.40;99.90;;;;;;5013788;28;20211;-81
2021/01/18 06:04:11;;;;;;;12.10;8.05;;;2.50;99.90;;;;;;5015732;28;20762;-82
2021/01/18 06:06:39;;;;;;;10.93;8.25;;;2.50;99.90;;;;;;5015735;28;20615;-82
2021/01/18 06:09:05;;;;;;;20.67;9.15;;;2.40;99.90;;;;;;5015485;28;20342;-82
2021/01/18 06:11:32;;;;;;;7.97;5.78;;;2.40;99.90;;;;;;5015257;28;20310;-83
2021/01/18 06:14:03;;;;;;;13.35;6.63;;;2.40;99.90;;;;;;5015235;28;20239;-84
2021/01/18 06:16:30;;;;;;;12.90;7.65;;;2.40;99.90;;;;;;5014180;28;20242;-85
2021/01/18 06:19:07;;;;;;;10.85;6.70;;;2.40;99.90;;;;;;5015431;28;20207;-85
2021/01/18 06:21:39;;;;;;;14.40;8.50;;;2.40;99.90;;;;;;5015348;28;20207;-85
2021/01/18 06:24:20;;;;;;;16.15;6.75;;;2.40;99.90;;;;;;5015376;28;20267;-85
2021/01/18 06:26:47;;;;;;;11.05;6.55;;;2.50;99.90;;;;;;5015251;28;20693;-85
2021/01/18 06:29:40;;;;;;;15.38;7.65;;;2.40;99.90;;;;;;5015576;28;20218;-85
2021/01/18 06:32:08;;;;;;;11.73;6.78;;;2.40;99.90;;;;;;5014399;28;20559;-82
2021/01/18 06:34:35;;;;;;;10.43;8.38;;;2.50;99.90;;;;;;5015182;28;20322;-84
2021/01/18 06:37:02;;;;;;;8.80;5.90;;;2.50;99.90;;;;;;5015117;28;20298;-84
2021/01/18 06:39:31;;;;;;;10.15;8.00;;;2.40;99.90;;;;;;5014414;28;20453;-84
2021/01/18 06:42:00;;;;;;;11.45;6.65;;;2.40;99.90;;;;;;5015211;28;20239;-85
2021/01/18 06:44:34;;;;;;;15.48;7.13;;;2.40;99.90;;;;;;5015405;28;20324;-84
2021/01/18 06:47:01;;;;;;;9.45;6.50;;;2.50;99.90;;;;;;5013902;28;20250;-82
2021/01/18 06:49:28;;;;;;;10.52;6.50;;;2.50;99.90;;;;;;5014396;28;20642;-86
2021/01/18 06:51:58;;;;;;;10.43;7.75;;;2.60;99.90;;;;;;5015480;28;20236;-84
2021/01/18 06:54:29;;;;;;;9.70;7.72;;;2.60;99.90;;;;;;5016041;28;20243;-86
2021/01/18 06:57:12;;;;;;;17.80;7.65;;;2.60;99.90;;;;;;5014767;28;20237;-86
2021/01/18 06:59:53;;;;;;;8.15;6.90;;;2.60;99.90;;;;;;5014692;28;20805;-89
2021/01/18 07:02:24;;;;;;;11.48;6.28;;;2.60;99.90;;;;;;5013658;28;20210;-85
2021/01/18 07:04:52;;;;;;;11.43;6.50;;;2.50;99.90;;;;;;5015256;28;20235;-80
2021/01/18 07:07:25;;;;;;;9.95;5.63;;;2.60;99.90;;;;;;5020270;28;20222;-84
2021/01/18 07:10:06;;;;;;;11.07;6.10;;;2.60;99.90;;;;;;5032105;28;20183;-81
2021/01/18 07:12:33;;;;;;;12.25;7.68;;;2.60;99.90;;;;;;5031500;28;20250;-83
2021/01/18 07:15:03;;;;;;;10.88;7.70;;;2.70;99.90;;;;;;5018435;28;20230;-84
2021/01/18 07:17:49;;;;;;;6.97;6.28;;;2.60;99.90;;;;;;5021482;28;20203;-82
2021/01/18 07:20:21;;;;;;;9.85;7.53;;;2.70;99.90;;;;;;5036844;28;20214;-83
2021/01/18 07:23:16;;;;;;;12.02;6.88;;;2.70;99.90;;;;;;5035500;28;20247;-83
2021/01/18 07:25:45;;;;;;;15.55;7.78;;;2.60;99.90;;;;;;5017090;28;20215;-85
2021/01/18 07:28:13;;;;;;;14.52;8.82;;;2.60;99.90;;;;;;5015546;28;20290;-84
2021/01/18 07:30:40;;;;;;;12.25;7.95;;;2.60;99.90;;;;;;5014617;28;20235;-84
2021/01/18 07:33:08;;;;;;;9.60;6.18;;;2.60;99.90;;;;;;5012714;28;20663;-85
2021/01/18 07:35:36;;;;;;;13.60;8.43;;;2.60;99.90;;;;;;5014079;28;20228;-81
2021/01/18 07:38:13;;;;;;;15.95;9.48;;;2.60;99.90;;;;;;5015488;28;20195;-84
2021/01/18 07:40:40;;;;;;;10.18;7.30;;;2.60;99.90;;;;;;5016010;28;20203;-84
2021/01/18 07:43:09;;;;;;;16.55;9.45;;;2.70;99.90;;;;;;5019233;28;20274;-84
2021/01/18 07:45:36;;;;;;;12.13;6.85;;;2.70;99.90;;;;;;5018104;28;20271;-83
2021/01/18 07:48:07;;;;;;;10.98;7.45;;;2.70;99.90;;;;;;5027805;28;20399;-82
2021/01/18 07:50:35;;;;;;;12.07;8.70;;;2.80;99.90;;;;;;5034752;28;20241;-81
2021/01/18 07:53:04;;;;;;;16.33;8.27;;;2.80;99.90;;;;;;5032754;28;20239;-83
2021/01/18 07:55:31;;;;;;;12.45;7.80;;;2.80;99.90;;;;;;5018991;28;20231;-82
2021/01/18 07:58:15;;;;;;;16.77;11.65;;;2.70;99.90;;;;;;5014360;28;20196;-83
2021/01/18 08:00:43;;;;;;;11.63;9.55;;;2.90;99.90;;;;;;5012403;28;20670;-77
2021/01/18 08:03:27;;;;;;;8.13;5.95;;;3.00;99.90;;;;;;5001374;28;20568;-84
2021/01/18 08:06:06;;;;;;;8.65;6.25;;;3.20;99.90;;;;;;5013718;28;20203;-83
2021/01/18 08:08:33;;;;;;;9.77;5.20;;;3.10;99.90;;;;;;5012760;28;20567;-77
2021/01/18 08:11:02;;;;;;;6.68;5.07;;;3.00;99.90;;;;;;5012868;28;20208;-81
2021/01/18 08:14:02;;;;;;;6.50;5.00;;;3.00;99.90;;;;;;5011971;28;20303;-83
2021/01/18 08:16:43;;;;;;;7.75;5.15;;;3.10;99.90;;;;;;5009716;28;20203;-83
2021/01/18 08:19:19;;;;;;;13.45;5.85;;;3.10;99.90;;;;;;5007544;28;20204;-83
2021/01/18 08:22:04;;;;;;;8.35;5.32;;;3.10;99.90;;;;;;5013339;28;20203;-81
2021/01/18 08:24:51;;;;;;;9.57;4.97;;;3.20;99.90;;;;;;5011467;28;20271;-81
2021/01/18 08:27:52;;;;;;;14.27;5.68;;;3.30;99.90;;;;;;5012737;28;20214;-81
2021/01/18 08:30:31;;;;;;;12.40;5.15;;;3.30;99.90;;;;;;4997934;28;20204;-84
2021/01/18 08:33:01;;;;;;;7.32;4.60;;;3.40;99.90;;;;;;5009400;28;20206;-86
2021/01/18 08:35:30;;;;;;;10.68;4.93;;;3.40;99.90;;;;;;5011971;28;20632;-85
2021/01/18 08:38:00;;;;;;;16.23;12.55;;;3.40;99.90;;;;;;5013273;28;20202;-87
2021/01/18 08:40:45;;;;;;;8.45;6.00;;;3.50;99.90;;;;;;5010793;28;20202;-86
2021/01/18 08:43:13;;;;;;;10.50;5.90;;;3.30;99.90;;;;;;5013622;28;20286;-82
2021/01/18 08:45:42;;;;;;;10.10;6.63;;;3.30;99.90;;;;;;5013330;28;20447;-89
2021/01/18 08:48:11;;;;;;;8.65;5.38;;;3.60;99.90;;;;;;5011840;28;20541;-88
2021/01/18 08:50:42;;;;;;;8.38;6.22;;;3.70;99.90;;;;;;5013487;28;20290;-89
2021/01/18 08:53:30;;;;;;;7.90;6.60;;;3.70;99.90;;;;;;5015277;28;20238;-88
2021/01/18 08:55:57;;;;;;;7.47;6.03;;;3.90;99.90;;;;;;5033904;28;20218;-85
2021/01/18 08:58:32;;;;;;;12.60;8.05;;;3.90;99.90;;;;;;5028091;28;20203;-87
2021/01/18 09:01:01;;;;;;;14.60;6.90;;;3.80;99.90;;;;;;5025430;28;20214;-85
2021/01/18 09:03:28;;;;;;;8.23;5.00;;;3.90;99.90;;;;;;5018204;28;20343;-84
2021/01/18 09:05:55;;;;;;;15.00;7.70;;;3.90;99.90;;;;;;5004026;28;20640;-83
2021/01/18 09:08:25;;;;;;;10.50;7.07;;;4.00;99.90;;;;;;4997771;28;20212;-84
2021/01/18 09:10:53;;;;;;;8.30;5.93;;;4.00;99.90;;;;;;4998445;28;20264;-86
2021/01/18 09:13:21;;;;;;;8.80;5.95;;;4.10;99.90;;;;;;5002069;28;20239;-84
2021/01/18 09:15:49;;;;;;;6.38;5.20;;;3.90;99.90;;;;;;5005614;28;20243;-85
2021/01/18 09:18:20;;;;;;;13.40;6.35;;;4.00;99.90;;;;;;5008049;28;20204;-85
2021/01/18 09:20:46;;;;;;;6.82;4.97;;;4.00;99.90;;;;;;5002505;28;20208;-84
2021/01/18 09:23:15;;;;;;;13.27;6.85;;;4.00;99.90;;;;;;4997848;28;20339;-87
2021/01/18 09:25:41;;;;;;;7.40;4.60;;;4.10;99.90;;;;;;4997924;28;20287;-84
2021/01/18 09:28:10;;;;;;;10.40;7.00;;;4.20;99.90;;;;;;4976819;28;20463;-84
2021/01/18 09:30:37;;;;;;;9.15;5.82;;;4.10;99.90;;;;;;4997057;28;20216;-85
2021/01/18 09:33:06;;;;;;;11.77;5.65;;;4.00;99.90;;;;;;4996444;28;20291;-88
2021/01/18 09:35:36;;;;;;;6.28;4.45;;;4.00;99.90;;;;;;5011055;28;20246;-88
2021/01/18 09:38:03;;;;;;;8.75;3.88;;;4.20;99.90;;;;;;5021364;28;20294;-86
2021/01/18 09:40:30;;;;;;;8.40;6.72;;;4.40;99.90;;;;;;5019650;28;20442;-86
2021/01/18 09:42:57;;;;;;;10.57;7.50;;;4.30;99.90;;;;;;5018092;28;20286;-77
2021/01/18 09:45:26;;;;;;;10.65;5.90;;;4.40;99.90;;;;;;5017904;28;20294;-81
2021/01/18 09:47:53;;;;;;;7.20;5.40;;;4.50;99.90;;;;;;5016702;28;20203;-85
2021/01/18 09:50:22;;;;;;;7.55;6.47;;;4.50;99.90;;;;;;5019861;28;20203;-87
2021/01/18 09:52:54;;;;;;;7.85;4.78;;;4.60;99.90;;;;;;5019734;28;20369;-85
2021/01/18 09:55:24;;;;;;;9.10;4.72;;;4.60;99.90;;;;;;5020854;28;20626;-85
2021/01/18 09:57:58;;;;;;;7.40;6.03;;;4.50;99.90;;;;;;5017681;28;20195;-84
2021/01/18 10:00:30;;;;;;;5.47;4.78;;;4.40;99.90;;;;;;5016042;28;20223;-84
2021/01/18 10:02:58;;;;;;;8.25;5.28;;;4.20;99.90;;;;;;5017680;28;20211;-85
2021/01/18 10:05:32;;;;;;;7.70;4.00;;;4.30;99.90;;;;;;5019087;28;20282;-86
2021/01/18 10:08:04;;;;;;;4.38;3.97;;;4.40;99.90;;;;;;5016837;28;20231;-83
2021/01/18 10:10:45;;;;;;;5.68;3.90;;;4.40;99.90;;;;;;5019050;28;20207;-83
2021/01/18 10:13:17;;;;;;;4.40;3.55;;;4.20;99.90;;;;;;5017995;28;20234;-85
2021/01/18 10:15:45;;;;;;;6.43;5.13;;;4.30;99.90;;;;;;5015644;28;20254;-83
2021/01/18 10:18:33;;;;;;;5.70;4.28;;;4.30;99.90;;;;;;5014720;28;20230;-86
2021/01/18 10:21:00;;;;;;;10.02;5.13;;;4.30;99.90;;;;;;5016656;28;20398;-84
2021/01/18 10:23:33;;;;;;;7.95;4.70;;;4.60;99.90;;;;;;5016137;28;20207;-82
2021/01/18 10:26:20;;;;;;;7.95;4.03;;;4.80;99.90;;;;;;5015327;28;20282;-79
2021/01/18 10:28:52;;;;;;;8.85;6.13;;;4.70;99.90;;;;;;5015009;28;20294;-79
2021/01/18 10:31:20;;;;;;;7.63;5.65;;;4.80;99.90;;;;;;5015034;28;20211;-84
2021/01/18 10:34:10;;;;;;;5.75;4.30;;;4.90;99.90;;;;;;5016222;28;20647;-86
2021/01/18 10:36:36;;;;;;;6.70;3.70;;;4.80;99.90;;;;;;5016418;28;20267;-86
2021/01/18 10:39:05;;;;;;;4.05;3.45;;;4.90;99.90;;;;;;5017363;28;20210;-87
2021/01/18 10:41:32;;;;;;;3.53;3.20;;;4.80;99.90;;;;;;5016231;28;20303;-85
2021/01/18 10:44:04;;;;;;;5.78;4.07;;;4.80;99.90;;;;;;5017158;28;20207;-88
2021/01/18 10:46:31;;;;;;;4.20;3.40;;;4.70;99.90;;;;;;5016088;28;20235;-85
2021/01/18 10:48:58;;;;;;;3.70;3.30;;;4.80;99.90;;;;;;5016437;28;20231;-86
2021/01/18 10:51:26;;;;;;;3.30;2.28;;;5.00;99.90;;;;;;5018115;28;20675;-87
2021/01/18 10:53:56;;;;;;;4.25;3.50;;;5.30;99.90;;;;;;5017842;28;20227;-86
2021/01/18 10:56:31;;;;;;;6.38;4.85;;;5.30;99.90;;;;;;5016136;28;20286;-87
2021/01/18 10:58:58;;;;;;;3.80;3.50;;;5.30;99.90;;;;;;5017206;28;20322;-86
2021/01/18 11:01:25;;;;;;;3.90;3.00;;;5.40;99.90;;;;;;5017404;28;21144;-86
2021/01/18 11:03:53;;;;;;;9.23;3.53;;;5.20;99.90;;;;;;5019875;28;20212;-89
2021/01/18 11:06:21;;;;;;;7.55;3.40;;;5.30;99.90;;;;;;5015433;28;20675;-86
2021/01/18 11:08:51;;;;;;;4.43;3.72;;;5.40;99.90;;;;;;5016222;28;20207;-84
2021/01/18 11:11:20;;;;;;;6.32;4.40;;;5.60;99.90;;;;;;5015230;28;20210;-84
2021/01/18 11:13:59;;;;;;;4.57;3.78;;;5.30;99.90;;;;;;5014888;28;20200;-84
2021/01/18 11:16:25;;;;;;;5.60;4.70;;;5.30;99.90;;;;;;5013858;28;20313;-84
2021/01/18 11:18:58;;;;;;;8.20;4.25;;;5.40;99.90;;;;;;5014793;28;20639;-84
2021/01/18 11:21:27;;;;;;;12.57;8.55;;;5.40;99.90;;;;;;5015683;28;20231;-84
2021/01/18 11:23:55;;;;;;;6.30;5.45;;;5.80;99.90;;;;;;5022325;28;20274;-83
2021/01/18 11:26:21;;;;;;;7.53;6.00;;;6.10;99.90;;;;;;5034493;28;20204;-82
2021/01/18 11:28:49;;;;;;;4.15;3.75;;;5.80;99.90;;;;;;5026255;28;20673;-83
2021/01/18 11:31:15;;;;;;;6.65;4.15;;;5.60;99.90;;;;;;5019146;28;20298;-82
2021/01/18 11:33:43;;;;;;;6.40;4.45;;;5.30;99.90;;;;;;5031994;28;20210;-81
2021/01/18 11:36:10;;;;;;;6.22;4.85;;;5.20;99.90;;;;;;5031478;28;20234;-83
2021/01/18 11:38:37;;;;;;;7.07;5.05;;;5.10;99.90;;;;;;5017514;28;20287;-83
2021/01/18 11:41:03;;;;;;;7.53;5.40;;;5.30;99.90;;;;;;5017020;28;20286;-83
2021/01/18 11:43:32;;;;;;;4.45;3.75;;;5.40;99.90;;;;;;5016125;28;20294;-83
2021/01/18 11:45:59;;;;;;;4.53;3.80;;;5.30;99.90;;;;;;5015170;28;20271;-83
2021/01/18 11:48:26;;;;;;;4.50;4.07;;;5.20;99.90;;;;;;5013941;28;20213;-82
2021/01/18 11:50:52;;;;;;;6.30;3.83;;;5.10;99.90;;;;;;5014277;28;20298;-82
2021/01/18 11:53:19;;;;;;;6.88;4.63;;;5.20;99.90;;;;;;5014887;28;20298;-82
2021/01/18 11:55:47;;;;;;;4.00;3.70;;;5.30;99.90;;;;;;5015300;28;20271;-83
2021/01/18 11:58:14;;;;;;;5.40;3.20;;;5.40;99.90;;;;;;5015218;28;20294;-82
2021/01/18 12:00:41;;;;;;;5.40;3.83;;;5.40;99.90;;;;;;5018349;28;20243;-83
2021/01/18 12:03:08;;;;;;;4.00;3.60;;;5.40;99.90;;;;;;5014024;28;20254;-79
2021/01/18 12:05:35;;;;;;;4.57;4.20;;;5.40;99.90;;;;;;5014487;28;20579;-80
2021/01/18 12:08:03;;;;;;;3.63;3.30;;;5.30;99.90;;;;;;5014399;28;20289;-81
2021/01/18 12:10:30;;;;;;;4.22;3.80;;;5.30;99.90;;;;;;5015019;28;20265;-80
2021/01/18 12:12:56;;;;;;;13.10;4.10;;;5.40;99.90;;;;;;5014310;28;20570;-80
2021/01/18 12:15:23;;;;;;;4.32;3.58;;;5.40;99.90;;;;;;5014081;28;20330;-80
2021/01/18 12:17:49;;;;;;;5.20;3.90;;;5.50;99.90;;;;;;5012811;28;20213;-80
2021/01/18 12:20:19;;;;;;;5.07;3.15;;;5.40;99.90;;;;;;5015397;28;20302;-81
2021/01/18 12:22:46;;;;;;;3.30;2.58;;;5.40;99.90;;;;;;5014697;28;20243;-81
2021/01/18 12:25:14;;;;;;;8.15;3.10;;;5.30;99.90;;;;;;5013901;28;20294;-81
2021/01/18 12:27:40;;;;;;;4.82;3.42;;;5.20;99.90;;;;;;5014464;28;20251;-81
2021/01/18 12:30:08;;;;;;;5.65;4.20;;;5.30;99.90;;;;;;5014670;28;20266;-82
2021/01/18 12:32:35;;;;;;;3.58;3.28;;;5.40;99.90;;;;;;5013911;28;20309;-80
2021/01/18 12:35:01;;;;;;;7.15;4.35;;;5.40;99.90;;;;;;5015905;28;20301;-79
2021/01/18 12:37:28;;;;;;;6.10;5.30;;;5.40;99.90;;;;;;5017391;28;20203;-81
2021/01/18 12:39:54;;;;;;;9.23;5.50;;;5.50;99.90;;;;;;5018641;28;20231;-81
2021/01/18 12:42:21;;;;;;;8.98;4.10;;;5.70;99.90;;;;;;5017773;28;20475;-81
2021/01/18 12:44:48;;;;;;;5.45;3.95;;;5.60;99.90;;;;;;5017536;28;20297;-82
2021/01/18 12:47:15;;;;;;;4.50;3.85;;;5.40;99.90;;;;;;5016271;28;20293;-82
2021/01/18 12:49:41;;;;;;;10.75;4.35;;;5.50;99.90;;;;;;5016909;28;20291;-81
2021/01/18 12:52:09;;;;;;;7.03;4.05;;;5.40;99.90;;;;;;5018642;28;20273;-81
2021/01/18 12:54:36;;;;;;;4.35;2.90;;;5.40;99.90;;;;;;5024599;28;20326;-81
2021/01/18 12:57:03;;;;;;;3.97;2.80;;;5.40;99.90;;;;;;5020079;28;20231;-82
2021/01/18 12:59:30;;;;;;;7.28;3.30;;;5.50;99.90;;;;;;5022457;28;20278;-82
2021/01/18 13:01:56;;;;;;;5.78;3.50;;;5.50;99.90;;;;;;5032545;28;20200;-82
2021/01/18 13:04:22;;;;;;;4.32;2.88;;;5.50;99.90;;;;;;5035013;28;20262;-82
2021/01/18 13:06:50;;;;;;;5.80;3.13;;;5.40;99.90;;;;;;5013268;28;20235;-81
2021/01/18 13:09:18;;;;;;;5.47;2.65;;;5.40;99.90;;;;;;5020626;28;20291;-84